Branches & Bays 10K - 2023 Race results

branches & bays 10k - 2023 results

OUR NEXT RACE IS THE DARK SKIES RUN @ GRASSHOLME - CLICK HERE FOR MORE INFO

NumberFirstnameLastnameClubDryburghBonjedwardMorebattleHethpoolWoolerA1 CrossingFinish TimePostionGenderGender
Postion
CategoryCategory
Postion
4216 Michael Harcourt Darlington Harriers & Athletics Club 00:46:05.008 1 Male 1 M 1
4377 Timothy Taylor 00:46:53.249 2 Male 2 M 2
4412 Joe Worthington Ackworth Road Runners 00:47:02.608 3 Male 3 M40 1
4376 Peter Taylor 00:48:15.627 4 Male 4 M40 2
4398 David Walker Sedgefield Harriers 00:49:57.358 5 Male 5 M50 1
4236 Jack Hutton Hartlepool Burn Road Harriers 00:50:08.487 6 Male 6 M 3
4209 Oli Hall Stockton Striders Ac 00:50:09.179 7 Male 7 M 4
4223 Paul Henry 00:51:32.487 8 Male 8 M50 2
4311 James Pitchford 00:51:32.759 9 Male 9 M40 3
4244 Phil Johnston 00:52:00.087 10 Male 10 M 5
4337 Mark Rutter 00:52:05.820 11 Male 11 M 6
4302 Leigh Owbridge Hartlepool Burn Road Harriers 00:52:06.358 12 Male 12 M50 3
4243 Michael Johnston Joanne Dewart 00:52:29.457 13 Male 13 M 7
4338 David Sanders Stocksfield Striders 00:52:46.347 14 Male 14 M 8
4108 Gary Anderson 00:52:49.317 15 Male 15 M 9
4292 Linda Mudford Sunderland Harriers & Ac 00:52:56.698 16 Female 1 F40 1
4287 Rob Merrison Idiots That Run 00:53:17.817 17 Male 16 M 10
4397 Abbie Walker Sedgefield Harriers 00:53:20.577 18 Female 2 F 1
4366 Mary Stobbs Jarrow And Hebburn Ac 00:53:21.958 19 Female 3 Fu18 1
4224 Colin Herron 00:53:30.897 20 Male 17 M 11
4182 Anthony Erskine Washington Running Club 00:53:34.258 21 Male 18 M50 4
4382 Michelle Thomson North Shields Polytechnic 00:53:51.267 22 Female 4 F40 2
4268 Cory Ledgister Lonely Goat Rc 00:54:13.438 23 Male 19 M 12
4407 Dale Wilkinson Sunderland Harriers & Ac 00:54:25.319 24 Male 20 M50 5
4187 Emma Fleming Stockton Striders Ac 00:54:36.208 25 Female 5 F40 3
4198 Steve Gilder Houghton Harriers & Ac 00:54:36.988 26 Male 21 M 13
4278 Karl Maguire Run Eat Sleep South Shields 00:54:52.857 27 Male 22 M 14
4286 George Mckay 00:54:53.998 28 Male 23 M50 6
4341 Joanne Scott Hartlepool Burn Road Harriers 00:54:59.576 29 Female 6 F50 1
4279 Gareth Maloney Stockton Striders Ac 00:55:02.849 30 Male 24 M50 7
4194 Darren Frostwick 00:55:08.697 31 Male 25 M40 4
4288 Daniele Meucci Stockton Striders Ac 00:55:17.817 32 Male 26 M 15
4166 Steve Cotton Stockton Striders Ac 00:55:21.958 33 Male 27 M50 8
4367 Garry Stobbs Jarrow And Hebburn Ac 00:55:29.158 34 Male 28 M50 9
4139 Luke Brown 00:55:32.937 35 Male 29 M 16
4325 Antonio Ribeiro 00:55:35.427 36 Male 30 M50 10
4276 Claire Macrae Newcastle Frontrunners 00:55:35.517 37 Female 7 F40 4
4273 Anthony Longstaff 00:55:44.667 38 Male 31 M 17
4176 Katherine Downie Gateshead Harriers & Ac 00:55:49.857 39 Female 8 F 2
4142 Neale Bulbeck 00:55:50.068 40 Male 32 M40 5
4160 Hollie Codling Trail Outlaws Running Club 00:55:51.298 41 Female 9 F 3
4226 Bryce Hicks Trail Outlaws Running Club 00:55:57.538 42 Male 33 M40 6
4260 Neve King-Jones Jarrow And Hebburn Ac 00:56:08.188 43 Female 10 Fu18 2
4190 Lloyd Forster North Shields Polytechnic 00:56:08.517 44 Male 34 M 18
4147 Ian Butler Elvet Striders 00:56:09.417 45 Male 35 M60 1
4207 Charles Hall North Shields Polytechnic 00:56:15.628 46 Male 36 M60 2
4181 Natalie Elwell 00:56:19.647 47 Female 11 F 4
4393 Chris Tynemouth Sunderland Strollers 00:56:21.088 48 Male 37 M40 7
4263 Colin Langley 30Mg Daily 00:56:27.388 49 Male 38 M 19
4225 Jess Heyworth Saltwell Harriers 00:56:29.787 50 Female 12 F 5
4274 Raymond Lugsden 00:56:36.897 51 Male 39 M60 3
4392 Ian Turrell 00:56:54.927 52 Male 40 M40 8
4162 Barry Cornell Sunderland Strollers 00:57:08.008 53 Male 41 M40 9
4155 Paul Cartwright 00:57:21.688 54 Male 42 M 20
4144 Daz Busby No Club Running Club 00:57:35.787 55 Male 43 M 21
4200 Ryan Goffey 00:57:59.879 56 Male 44 M 22
4132 Martin Bircham 00:58:24.478 57 Male 45 M40 10
4379 Tony Thompson Wearside Tri Club 00:58:30.297 58 Male 46 M60 4
4416 Aaron Charlton 00:58:34.137 59 Male 47 M 23
4277 Raymond Maddison Run Eat Sleep-Southshields 00:58:35.728 60 Male 48 M50 11
4124 Stephen Bell 00:58:45.988 61 Male 49 M50 12
4395 Darren Wake 00:58:48.837 62 Male 50 M40 11
4119 Joanne Beddow Hartlepool Burn Road Harriers 00:58:54.658 63 Female 13 F40 5
4228 Paul Hodgkinson 00:59:19.108 64 Male 51 M40 12
4149 Peter Camp Stockton Striders Ac 00:59:26.968 65 Male 52 M60 5
4106 Kris Allen Stockton Striders Ac 00:59:32.157 66 Male 53 M40 13
4351 Adam Smith 00:59:37.587 67 Male 54 M 24
4355 Martin Smith 00:59:46.258 68 Male 55 M40 14
4227 Dean High 00:59:54.807 69 Male 56 M60 6
4183 Sarah Fairbairn Durham City Harriers & Ac 01:00:11.098 70 Female 14 F40 6
4365 Robert Stewart Res Run Club 01:00:24.568 71 Male 57 M 25
4143 Michael Bunn Jarrow & Hebburn Ac 01:00:26.998 72 Male 58 M60 7
4104 Charlie Adams Saltwell Harriers 01:00:33.658 73 Female 15 F40 7
4192 Anthony Fox 01:00:53.278 74 Male 59 M 26
4177 Chris Dunn Runeatsleep 01:00:57.898 75 Male 60 M 27
4331 Chris Robinson Vane Tempest Running Club 01:01:01.138 76 Male 61 M40 15
4193 Michael Fox 01:01:12.867 77 Male 62 M40 16
4102 Brendan Abbott North Shields Polytechnic Club 01:01:24.057 78 Male 63 M50 13
4264 Stuart Langley 01:01:30.868 79 Male 64 M40 17
4169 Gavin D'Northwood 01:01:32.038 80 Male 65 M50 14
4231 Steve Hoggy 01:02:03.747 81 Male 66 M 28
4233 Sarah Holmes Gateshead Harriers 01:02:17.368 82 Female 16 F 6
4402 Diana Weightman Alnwick Harriers 01:02:26.878 83 Female 17 F60 1
4208 Chris Hall 01:02:30.298 84 Male 67 M40 18
4256 Ronnie Kidger Jarrow And Hebburn Ac 01:02:43.287 85 Male 68 M60 8
4246 Colin Jopson 01:02:44.578 86 Male 69 M 29
4117 Trevor Barrs Sunderland Harriers & Ac 01:03:06.117 87 Male 70 M60 9
4148 Tara Cameron 01:03:12.808 88 Female 18 F 7
4221 David Hedley 01:03:15.538 89 Male 71 M 30
4347 Liz Simpson Stockton Striders Ac 01:03:23.879 90 Female 19 F40 8
4399 Neil Walker 01:03:51.507 91 Male 72 M40 19
4373 Linzi Taylor 01:04:05.968 92 Female 20 F 8
4172 Andy Depear 01:04:16.797 93 Male 73 M50 15
4275 Gemma Lynch Tyne Bridge Harriers 01:04:49.827 94 Female 21 F40 9
4129 Kim Bennett Elvet Stiders 01:05:12.207 95 Female 22 F50 2
4115 Katie Ayton Stockton Striders Ac 01:05:23.428 96 Female 23 F 9
4153 Lynne Carruthers Durham City Harriers 01:05:24.268 97 Female 24 F60 2
4316 James Prescott Tyne Bridge Harriers 01:05:29.908 98 Male 74 M60 10
4266 Andrew Laverick Stockton Striders Ac 01:05:36.807 99 Male 75 M40 20
4254 Alison Kidger Jarrow And Hebburn Ac 01:05:50.128 100 Female 25 F50 3
4298 Matt Offer Saltwell Harriers 01:05:55.557 101 Male 76 M40 21
4196 John George Jarrow And Hebburn Ac 01:06:01.527 102 Male 77 M40 22
4197 Shirley George Jarrow And Hebburn Ac 01:06:12.747 103 Female 26 F40 10
4410 Linda Wilson Derwent Valley Trail Runners 01:06:15.989 104 Female 27 F50 4
4239 Jill Innes 01:06:41.217 105 Female 28 F40 11
4217 Mark Harris Washington Running Club 01:06:45.358 106 Male 78 M40 23
4154 Sue Cartwright 01:06:53.518 107 Female 29 F50 5
4145 Terry Butcher 01:07:24.597 108 Male 79 M 31
4135 Jo Brannen Washington Running Club 01:07:30.447 109 Female 30 F40 12
4280 Jeff Marriott Quakers Rc 01:07:37.467 110 Male 80 M60 11
4219 Zoe Harvey 01:07:41.998 111 Female 31 F40 13
4150 Jacqui Candlish Saltwell Harriers 01:07:45.147 112 Female 32 F50 6
4210 Tanya Hall East Durham Running Club 01:07:58.167 113 Female 33 F 10
4348 Marie Slack South Shields Harriers And Ac 01:08:03.778 114 Female 34 F50 7
4401 Terri Watson Run Peterlee 01:08:13.888 115 Male 81 M40 24
4137 Christopher Brown Run Peterlee 01:08:18.357 116 Male 82 M 32
4369 Lydia Stoker Sunderland Harriers & Ac 01:08:18.597 117 Female 35 F 11
4368 Brian Stoker 01:08:23.279 118 Male 83 M50 16
4175 Stephanie Donkin 01:08:30.297 119 Male 84 M 33
4202 Simon Graham 01:08:33.597 120 Male 85 M40 25
4178 Jon Dunningham North Shields Polytechnic 01:08:52.827 121 Male 86 M40 26
4230 Keran Hodgson Stockton Striders Ac 01:09:01.287 122 Female 36 F50 8
4363 Keith Stewart 01:09:11.548 123 Male 87 M50 17
4184 Lesley Falkous Blyth Running Club 01:09:19.708 124 Female 37 F40 14
4220 David Heaney 01:09:50.037 125 Male 88 M 34
4107 Jennifer Allison Run Nation Running Club 01:09:50.248 126 Female 38 F40 15
4270 Dave Lockney Run Eat Sleep-Southshields 01:09:53.397 127 Male 89 M60 12
4415 Aaron Harrald 01:10:06.748 128 Male 90 M 35
4390 Gill Turnbull 01:10:36.748 129 Female 39 F 12
4306 Esther Parker Coxhoe On The Run 01:10:59.488 130 Female 40 F 13
4394 Dale Underwood 01:11:04.737 131 Male 91 M 36
4179 Nigel Eddy Quakers Running Club 01:11:13.737 132 Male 92 M60 13
4118 Laurence Barton 01:11:42.088 133 Male 93 M40 27
4362 Andrew Stephenson 01:11:54.838 134 Male 94 M 37
4385 Sarah Thorell Lonely Goat Rc 01:12:01.197 135 Female 41 F40 16
4320 Tracey Quinn Girls That Jeff 01:12:02.368 136 Female 42 F50 9
4146 Abby Butler Billingham Running Club 01:12:05.067 137 Female 43 F 14
4237 Michelle Ince Stockton Striders Ac 01:12:18.208 138 Female 44 F50 10
4131 Louise Bircham 01:12:32.487 139 Female 45 F40 17
4352 Antonia Smith Jarrow And Hebburn Ac 01:12:33.117 140 Female 46 F 15
4189 Nathaniel James Forson Sunderland Strollers 01:12:50.007 141 Male 95 M40 28
4323 Lesley Redpath 01:12:57.088 142 Female 47 F50 11
4165 Sarah Cotton Stockton Striders Ac 01:13:02.249 143 Female 48 F 16
4290 Steve Milburn Washington Running Club 01:13:10.438 144 Male 96 M50 18
4259 Sue King Stockton Striders Ac 01:13:16.737 145 Female 49 F60 3
4258 Alan King Stockton Striders Ac 01:13:18.118 146 Male 97 M60 14
4364 Michaela Stewart Res Run Club 01:13:28.767 147 Female 50 F 17
4400 Amanda Waller North East Project 01:13:46.977 148 Female 51 F60 4
4354 Ian Smith Trail Outlaws Running Club 01:14:03.748 149 Male 98 M60 15
4262 Pauline Lampard 01:14:48.028 150 Female 52 F50 12
4312 Shun Plondaya Talahib Ecorunners Philippines 01:14:58.018 151 Male 99 M40 29
4136 Carl Brookfield 01:15:23.668 152 Male 100 M50 19
4318 Yvonne Probert Running 4 Women 01:15:55.227 153 Female 53 F50 13
4261 Laura Knowles Res 01:16:04.887 154 Female 54 F 18
4314 Sarah Pratt 01:16:40.857 155 Female 55 F40 18
4111 Malcolm Aspinall 01:16:48.808 156 Male 101 M70 1
4293 Charlotte Munday 01:17:08.007 157 Female 56 F 19
4168 Neil Crerar 01:17:29.218 158 Male 102 M40 30
4140 Paul Brown 01:18:01.557 159 Male 103 M50 20
4134 Andy Bradley 01:18:02.338 160 Male 104 M40 31
4158 Michael Charlton 01:18:25.467 161 Male 105 M50 21
4405 Rachel Whitley Run Eat Sleep-Southshields 01:18:44.038 162 Female 57 F40 19
4114 Ron Avery Sunderland Strollers 01:18:59.038 163 Male 106 M70 2
4122 Sarah Bell Washington Running Club 01:19:38.848 164 Female 58 F40 20
4151 Jane Carmichael Washington Running Club 01:19:40.048 165 Female 59 F40 21
4417 Robert Galley 01:20:12.838 166 Male 107 M50 22
4317 Jo Priestley 01:20:14.007 167 Female 60 F50 14
4185 Suzanne Fennell Dewsbury Road Runners 01:21:18.538 168 Female 61 F50 15
4186 Daniel Fenwick Run Eat Sleep 01:21:26.518 169 Male 108 M 38
4242 James Johnson 01:21:33.297 170 Male 109 M50 23
4324 Nathan Redshaw 01:21:33.867 171 Male 110 M 39
4222 Vicky Henderson 01:21:35.639 172 Female 62 F50 16
4381 Ian Thompson 01:22:05.397 173 Male 111 M50 24
4218 Paul Harvey 01:22:12.447 174 Male 112 M50 25
4403 Dawn White Blyth Running Club 01:22:13.588 175 Female 63 F50 17
4191 David Fowler 01:22:18.358 176 Male 113 M40 32
4291 Lisa Milne Jarrow And Hebburn Ac 01:22:18.869 177 Female 64 F40 22
4174 Allison Dimmock 01:22:42.357 178 Female 65 F40 23
4370 Lauren Storey Stocksfield Striders 01:23:17.577 179 Female 66 F 20
4409 John Wilson Stockton Striders Ac 01:23:59.037 180 Male 114 M70 3
4384 Scott Thomson 01:24:02.518 181 Male 115 M50 26
4156 Suzanne Cartwright 01:24:23.607 182 Female 67 F 21
4353 Helen Smith 01:24:25.827 183 Female 68 F 22
4126 Susan Bell Jarrow And Hebburn Ac 01:24:31.527 184 Female 69 F60 5
4250 Gail Keenan 01:24:56.457 185 Female 70 F50 18
4255 Kenneth Kidger Jarrow & Hebburn Ac 01:25:04.317 186 Male 116 M60 16
4360 Sandra Stabler Stockton Striders Ac 01:25:33.987 187 Female 71 F60 6
4171 Raymond Dang 01:25:53.100 188 Male 117 M60 17
4170 Louise Dang 01:25:54.209 189 Female 72 F50 19
4340 Jason Savage 01:25:55.558 190 Male 118 M 40
4103 Jill Abel Stockton Striders Ac 01:25:59.758 191 Female 73 F60 7
4157 Ashleigh Charlton 01:27:02.967 192 Female 74 F 23
4229 Richard Hodgkiss Stockton Striders Ac 01:27:04.228 193 Male 119 M60 18
4389 Richard Tonge Aycliffe Running Club 01:27:05.158 194 Male 120 M60 19
4289 Lottie Middleton Stockton Striders Ac 01:27:08.100 195 Female 75 F 24
4388 Kathleen Tonge Aycliffe Running Club 01:27:40.948 196 Female 76 F60 8
4284 Hannah Mcgrory 01:27:48.417 197 Female 77 F 25
4383 Natalie Thomson 01:27:55.587 198 Female 78 F40 24
4247 Karen Juan Dees 01:27:56.038 199 Female 79 F40 25
4299 Sam Orton 01:28:26.188 200 Male 121 M 41
4396 Maria Wakefield Riverside Striders 01:28:33.057 201 Female 80 F50 20
4130 Katy Bennett Fordy Runs Running Club 01:28:34.018 202 Female 81 F 26
4163 Shona Corner Jarrow And Hebburn Ac 01:28:35.609 203 Female 82 F40 26
4336 Fiona Roe Billingham Running Club 01:28:38.547 204 Female 83 F 27
4257 Ian Kille 01:28:53.967 205 Male 122 M60 20
4120 Andrew Beevers Stockton Striders Ac 01:28:59.637 206 Male 123 M60 21
4309 Iona Phillips Washington Running Club 01:30:25.377 207 Female 84 F 28
4265 Jillian Large Washington Running Club 01:30:28.528 208 Female 85 F60 9
4303 Dinah Owen Stockton Striders Ac 01:31:17.278 209 Female 86 F60 10
4272 Janice Long Stockton Striders Ac 01:31:31.589 210 Female 87 F60 11
4329 Carl Ridley Hartlepool Run Fit 01:31:39.958 211 Male 124 M50 27
4327 Emma Richardson 01:31:52.498 212 Female 88 F 29
4267 Nicola Lawson Washington Running Club 01:31:54.208 213 Female 89 F50 21
4321 Pauline Ranson Hartlepool Burn Road Harriers 01:32:37.737 214 Female 90 F50 22
4203 Jeanette Gratton Billingham Running Club 01:33:11.277 215 Female 91 F60 12
4234 Stella Hudson North East Project 01:34:03.117 216 Female 92 F50 23
4269 Rachael Leisk 01:34:27.237 217 Female 93 F40 27
4204 Rebecca Green 01:34:37.677 218 Female 94 F40 28
4372 Demi Swann 01:34:39.478 219 Female 95 F 30
4350 Judith Slocombe 01:35:20.337 220 Female 96 F50 24
4334 Derek Robson 01:35:23.608 221 Male 125 M60 22
4406 Anthony Wild 01:37:24.657 222 Male 126 M 42
4101 Paula Abbott North Shield Poly 01:38:22.228 223 Female 97 F50 25
4295 Gillian Murray North Shields Polytechnic 01:38:22.947 224 Female 98 F60 13
4282 Chris Mcgrath Hartlepool Burn Road Harriers 01:39:24.507 225 Male 127 M 43
4173 Kara Dickey Washington Running Club 01:40:00.598 226 Female 99 F40 29
4374 Melanie Taylor Washington Running Club 01:40:03.688 227 Female 100 F40 30
4249 Alaina Keech Washington Running Club 01:40:03.988 228 Female 101 F 31
4294 Janine Munroe Torc 01:40:07.108 229 Female 102 F40 31
4386 Catherine Tillson Washington Running Club 01:40:07.318 230 Female 103 F40 32
4283 Julie Mcgrath Hartlepool Burn Road Harriers 01:41:05.368 231 Female 104 F60 14
4133 Tracy Bradburn Stockton Striders Ac 01:44:04.317 232 Female 105 F60 15
4330 Clare Ridley Run Fit Hartlepool 02:12:37.078 233 Female 106 F40 33